sensor_id;sensor_type;location;lat;lon;timestamp;temperature;humidity
10263;DHT22;5177;50.068;8.156;2022-09-30T00:01:22;7.60;99.90
10263;DHT22;5177;50.068;8.156;2022-09-30T00:03:50;7.60;99.90
10263;DHT22;5177;50.068;8.156;2022-09-30T00:06:15;7.60;99.90
10263;DHT22;5177;50.068;8.156;2022-09-30T00:08:41;7.60;99.90
10263;DHT22;5177;50.068;8.156;2022-09-30T00:11:10;7.60;99.90
10263;DHT22;5177;50.068;8.156;2022-09-30T00:13:37;7.60;99.90
10263;DHT22;5177;50.068;8.156;2022-09-30T00:16:03;7.60;99.90
10263;DHT22;5177;50.068;8.156;2022-09-30T00:18:29;7.60;99.90
10263;DHT22;5177;50.068;8.156;2022-09-30T00:20:55;7.60;99.90
10263;DHT22;5177;50.068;8.156;2022-09-30T00:23:21;7.60;99.90
10263;DHT22;5177;50.068;8.156;2022-09-30T00:25:48;7.60;99.90
10263;DHT22;5177;50.068;8.156;2022-09-30T00:28:14;7.60;99.90
10263;DHT22;5177;50.068;8.156;2022-09-30T00:30:39;7.60;99.90
10263;DHT22;5177;50.068;8.156;2022-09-30T00:33:05;7.60;99.90
10263;DHT22;5177;50.068;8.156;2022-09-30T00:35:31;7.60;99.90
10263;DHT22;5177;50.068;8.156;2022-09-30T00:37:57;7.60;99.90
10263;DHT22;5177;50.068;8.156;2022-09-30T00:40:24;7.60;99.90
10263;DHT22;5177;50.068;8.156;2022-09-30T00:42:51;7.60;99.90
10263;DHT22;5177;50.068;8.156;2022-09-30T00:45:16;7.60;99.90
10263;DHT22;5177;50.068;8.156;2022-09-30T00:50:14;7.70;99.90
10263;DHT22;5177;50.068;8.156;2022-09-30T00:52:45;7.70;99.90
10263;DHT22;5177;50.068;8.156;2022-09-30T00:55:17;7.70;99.90
10263;DHT22;5177;50.068;8.156;2022-09-30T00:57:45;7.70;99.90
10263;DHT22;5177;50.068;8.156;2022-09-30T01:00:10;7.60;99.90
10263;DHT22;5177;50.068;8.156;2022-09-30T01:02:36;7.50;99.90
10263;DHT22;5177;50.068;8.156;2022-09-30T01:05:02;7.50;99.90
10263;DHT22;5177;50.068;8.156;2022-09-30T01:07:27;7.40;99.90
10263;DHT22;5177;50.068;8.156;2022-09-30T01:09:53;7.40;99.90
10263;DHT22;5177;50.068;8.156;2022-09-30T01:12:19;7.30;99.90
10263;DHT22;5177;50.068;8.156;2022-09-30T01:14:46;7.20;99.90
10263;DHT22;5177;50.068;8.156;2022-09-30T01:17:19;7.20;99.90
10263;DHT22;5177;50.068;8.156;2022-09-30T01:19:54;7.20;99.90
10263;DHT22;5177;50.068;8.156;2022-09-30T01:32:38;7.10;99.90
10263;DHT22;5177;50.068;8.156;2022-09-30T01:35:11;7.10;99.90
10263;DHT22;5177;50.068;8.156;2022-09-30T01:40:24;6.90;99.90
10263;DHT22;5177;50.068;8.156;2022-09-30T01:45:25;6.90;99.90
10263;DHT22;5177;50.068;8.156;2022-09-30T01:50:29;6.90;99.90
10263;DHT22;5177;50.068;8.156;2022-09-30T01:53:13;6.90;99.90
10263;DHT22;5177;50.068;8.156;2022-09-30T01:55:42;6.90;99.90
10263;DHT22;5177;50.068;8.156;2022-09-30T01:58:15;6.90;99.90
10263;DHT22;5177;50.068;8.156;2022-09-30T02:00:43;6.90;99.90
10263;DHT22;5177;50.068;8.156;2022-09-30T02:03:11;6.80;99.90
10263;DHT22;5177;50.068;8.156;2022-09-30T02:08:14;6.80;99.90
10263;DHT22;5177;50.068;8.156;2022-09-30T02:10:42;6.80;99.90
10263;DHT22;5177;50.068;8.156;2022-09-30T02:15:36;6.70;99.90
10263;DHT22;5177;50.068;8.156;2022-09-30T02:18:03;6.70;99.90
10263;DHT22;5177;50.068;8.156;2022-09-30T02:20:30;6.70;99.90
10263;DHT22;5177;50.068;8.156;2022-09-30T02:22:59;6.70;99.90
10263;DHT22;5177;50.068;8.156;2022-09-30T02:25:27;6.70;99.90
10263;DHT22;5177;50.068;8.156;2022-09-30T02:27:57;6.70;99.90
10263;DHT22;5177;50.068;8.156;2022-09-30T02:30:24;6.70;99.90
10263;DHT22;5177;50.068;8.156;2022-09-30T02:32:51;6.60;99.90
10263;DHT22;5177;50.068;8.156;2022-09-30T02:35:20;6.70;99.90
10263;DHT22;5177;50.068;8.156;2022-09-30T02:37:48;6.70;99.90
10263;DHT22;5177;50.068;8.156;2022-09-30T02:40:23;6.70;99.90
10263;DHT22;5177;50.068;8.156;2022-09-30T02:42:51;6.70;99.90
10263;DHT22;5177;50.068;8.156;2022-09-30T02:45:19;6.70;99.90
10263;DHT22;5177;50.068;8.156;2022-09-30T02:50:13;6.70;99.90
10263;DHT22;5177;50.068;8.156;2022-09-30T02:52:43;6.70;99.90
10263;DHT22;5177;50.068;8.156;2022-09-30T02:57:51;6.70;99.90
10263;DHT22;5177;50.068;8.156;2022-09-30T03:00:18;6.70;99.90
10263;DHT22;5177;50.068;8.156;2022-09-30T03:02:44;6.60;99.90
10263;DHT22;5177;50.068;8.156;2022-09-30T03:05:10;6.60;99.90
10263;DHT22;5177;50.068;8.156;2022-09-30T03:07:35;6.60;99.90
10263;DHT22;5177;50.068;8.156;2022-09-30T03:10:10;6.60;99.90
10263;DHT22;5177;50.068;8.156;2022-09-30T03:28:23;6.70;99.90
10263;DHT22;5177;50.068;8.156;2022-09-30T03:33:20;6.70;99.90
10263;DHT22;5177;50.068;8.156;2022-09-30T03:36:08;6.80;99.90
10263;DHT22;5177;50.068;8.156;2022-09-30T03:38:38;6.70;99.90
10263;DHT22;5177;50.068;8.156;2022-09-30T03:41:10;6.70;99.90
10263;DHT22;5177;50.068;8.156;2022-09-30T03:43:43;6.60;99.90
10263;DHT22;5177;50.068;8.156;2022-09-30T03:46:13;6.60;99.90
10263;DHT22;5177;50.068;8.156;2022-09-30T03:48:40;6.60;99.90
10263;DHT22;5177;50.068;8.156;2022-09-30T03:51:07;6.50;99.90
10263;DHT22;5177;50.068;8.156;2022-09-30T03:53:37;6.50;99.90
10263;DHT22;5177;50.068;8.156;2022-09-30T03:56:02;6.40;99.90
10263;DHT22;5177;50.068;8.156;2022-09-30T03:58:28;6.40;99.90
10263;DHT22;5177;50.068;8.156;2022-09-30T04:00:53;6.40;99.90
10263;DHT22;5177;50.068;8.156;2022-09-30T04:03:21;6.30;99.90
10263;DHT22;5177;50.068;8.156;2022-09-30T04:05:47;6.30;99.90
10263;DHT22;5177;50.068;8.156;2022-09-30T04:08:12;6.30;99.90
10263;DHT22;5177;50.068;8.156;2022-09-30T04:10:42;6.20;99.90
10263;DHT22;5177;50.068;8.156;2022-09-30T04:13:08;6.30;99.90
10263;DHT22;5177;50.068;8.156;2022-09-30T04:15:34;6.20;99.90
10263;DHT22;5177;50.068;8.156;2022-09-30T04:18:00;6.30;99.90
10263;DHT22;5177;50.068;8.156;2022-09-30T04:20:26;6.30;99.90
10263;DHT22;5177;50.068;8.156;2022-09-30T04:22:52;6.30;99.90
10263;DHT22;5177;50.068;8.156;2022-09-30T04:25:17;6.30;99.90
10263;DHT22;5177;50.068;8.156;2022-09-30T04:27:42;6.30;99.90
10263;DHT22;5177;50.068;8.156;2022-09-30T04:30:08;6.20;99.90
10263;DHT22;5177;50.068;8.156;2022-09-30T04:32:34;6.20;99.90
10263;DHT22;5177;50.068;8.156;2022-09-30T04:34:59;6.20;99.90
10263;DHT22;5177;50.068;8.156;2022-09-30T04:37:25;6.20;99.90
10263;DHT22;5177;50.068;8.156;2022-09-30T04:39:50;6.20;99.90
10263;DHT22;5177;50.068;8.156;2022-09-30T04:42:16;6.20;99.90
10263;DHT22;5177;50.068;8.156;2022-09-30T04:44:42;6.10;99.90
10263;DHT22;5177;50.068;8.156;2022-09-30T04:47:08;6.10;99.90
10263;DHT22;5177;50.068;8.156;2022-09-30T04:49:33;6.10;99.90
10263;DHT22;5177;50.068;8.156;2022-09-30T04:51:59;6.10;99.90
10263;DHT22;5177;50.068;8.156;2022-09-30T04:54:24;6.10;99.90
10263;DHT22;5177;50.068;8.156;2022-09-30T04:56:50;6.10;99.90
10263;DHT22;5177;50.068;8.156;2022-09-30T04:59:15;6.10;99.90
10263;DHT22;5177;50.068;8.156;2022-09-30T05:01:41;6.10;99.90
10263;DHT22;5177;50.068;8.156;2022-09-30T05:04:07;6.10;99.90
10263;DHT22;5177;50.068;8.156;2022-09-30T05:06:33;6.20;99.90
10263;DHT22;5177;50.068;8.156;2022-09-30T05:08:59;6.20;99.90
10263;DHT22;5177;50.068;8.156;2022-09-30T05:11:24;6.30;99.90
10263;DHT22;5177;50.068;8.156;2022-09-30T05:13:50;6.30;99.90
10263;DHT22;5177;50.068;8.156;2022-09-30T05:16:16;6.40;99.90
10263;DHT22;5177;50.068;8.156;2022-09-30T05:18:42;6.50;99.90
10263;DHT22;5177;50.068;8.156;2022-09-30T05:21:11;6.60;99.90
10263;DHT22;5177;50.068;8.156;2022-09-30T05:23:36;6.60;99.90
10263;DHT22;5177;50.068;8.156;2022-09-30T05:26:02;6.60;99.90
10263;DHT22;5177;50.068;8.156;2022-09-30T05:28:28;6.70;99.90
10263;DHT22;5177;50.068;8.156;2022-09-30T05:30:59;6.70;99.90
10263;DHT22;5177;50.068;8.156;2022-09-30T05:33:25;6.80;99.90
10263;DHT22;5177;50.068;8.156;2022-09-30T05:35:51;6.90;99.90
10263;DHT22;5177;50.068;8.156;2022-09-30T05:38:16;7.00;99.90
10263;DHT22;5177;50.068;8.156;2022-09-30T05:40:42;7.10;99.90
10263;DHT22;5177;50.068;8.156;2022-09-30T05:43:08;7.20;99.90
10263;DHT22;5177;50.068;8.156;2022-09-30T05:45:34;7.20;99.90
10263;DHT22;5177;50.068;8.156;2022-09-30T05:47:59;7.30;99.90
10263;DHT22;5177;50.068;8.156;2022-09-30T05:50:25;7.30;99.90
10263;DHT22;5177;50.068;8.156;2022-09-30T05:52:50;7.30;99.90
10263;DHT22;5177;50.068;8.156;2022-09-30T05:55:17;7.30;99.90
10263;DHT22;5177;50.068;8.156;2022-09-30T05:57:42;7.30;99.90
10263;DHT22;5177;50.068;8.156;2022-09-30T06:00:10;7.40;99.90
10263;DHT22;5177;50.068;8.156;2022-09-30T06:02:36;7.40;99.90
10263;DHT22;5177;50.068;8.156;2022-09-30T06:05:03;7.40;99.90
10263;DHT22;5177;50.068;8.156;2022-09-30T06:07:29;7.40;99.90
10263;DHT22;5177;50.068;8.156;2022-09-30T06:09:54;7.40;99.90
10263;DHT22;5177;50.068;8.156;2022-09-30T06:12:20;7.40;99.90
10263;DHT22;5177;50.068;8.156;2022-09-30T06:14:45;7.40;99.90
10263;DHT22;5177;50.068;8.156;2022-09-30T06:17:11;7.40;99.90
10263;DHT22;5177;50.068;8.156;2022-09-30T06:19:36;7.30;99.90
10263;DHT22;5177;50.068;8.156;2022-09-30T06:22:01;7.40;99.90
10263;DHT22;5177;50.068;8.156;2022-09-30T06:24:27;7.50;99.90
10263;DHT22;5177;50.068;8.156;2022-09-30T06:26:53;7.40;99.90
10263;DHT22;5177;50.068;8.156;2022-09-30T06:29:18;7.40;99.90
10263;DHT22;5177;50.068;8.156;2022-09-30T06:31:44;7.50;99.90
10263;DHT22;5177;50.068;8.156;2022-09-30T06:34:09;7.50;99.90
10263;DHT22;5177;50.068;8.156;2022-09-30T06:36:35;7.40;99.90
10263;DHT22;5177;50.068;8.156;2022-09-30T06:39:00;7.40;99.90
10263;DHT22;5177;50.068;8.156;2022-09-30T06:41:26;7.50;99.90
10263;DHT22;5177;50.068;8.156;2022-09-30T06:43:52;7.50;99.90
10263;DHT22;5177;50.068;8.156;2022-09-30T06:46:18;7.40;99.90
10263;DHT22;5177;50.068;8.156;2022-09-30T06:48:44;7.40;99.90
10263;DHT22;5177;50.068;8.156;2022-09-30T06:51:09;7.40;99.90
10263;DHT22;5177;50.068;8.156;2022-09-30T06:53:38;7.40;99.90
10263;DHT22;5177;50.068;8.156;2022-09-30T06:56:04;7.40;99.90
10263;DHT22;5177;50.068;8.156;2022-09-30T06:58:29;7.40;99.90
10263;DHT22;5177;50.068;8.156;2022-09-30T07:00:58;7.40;99.90
10263;DHT22;5177;50.068;8.156;2022-09-30T07:03:26;7.40;99.90
10263;DHT22;5177;50.068;8.156;2022-09-30T07:06:03;7.40;99.90
10263;DHT22;5177;50.068;8.156;2022-09-30T07:08:29;7.50;99.90
10263;DHT22;5177;50.068;8.156;2022-09-30T07:10:58;7.60;99.90
10263;DHT22;5177;50.068;8.156;2022-09-30T07:13:24;7.60;99.90
10263;DHT22;5177;50.068;8.156;2022-09-30T07:15:50;7.60;99.90
10263;DHT22;5177;50.068;8.156;2022-09-30T07:18:22;7.70;99.90
10263;DHT22;5177;50.068;8.156;2022-09-30T07:20:48;7.80;99.90
10263;DHT22;5177;50.068;8.156;2022-09-30T07:23:14;7.80;99.90
10263;DHT22;5177;50.068;8.156;2022-09-30T07:25:39;7.90;99.90
10263;DHT22;5177;50.068;8.156;2022-09-30T07:28:05;8.00;99.90
10263;DHT22;5177;50.068;8.156;2022-09-30T07:30:30;8.10;99.90
10263;DHT22;5177;50.068;8.156;2022-09-30T07:32:55;8.10;99.90
10263;DHT22;5177;50.068;8.156;2022-09-30T07:35:21;8.20;99.90
10263;DHT22;5177;50.068;8.156;2022-09-30T07:37:47;8.10;99.90
10263;DHT22;5177;50.068;8.156;2022-09-30T07:40:12;8.20;99.90
10263;DHT22;5177;50.068;8.156;2022-09-30T07:42:39;8.20;99.90
10263;DHT22;5177;50.068;8.156;2022-09-30T07:45:09;8.30;99.90
10263;DHT22;5177;50.068;8.156;2022-09-30T07:47:35;8.40;99.90
10263;DHT22;5177;50.068;8.156;2022-09-30T07:50:00;8.40;99.90
10263;DHT22;5177;50.068;8.156;2022-09-30T07:52:26;8.50;99.90
10263;DHT22;5177;50.068;8.156;2022-09-30T07:54:51;8.60;99.90
10263;DHT22;5177;50.068;8.156;2022-09-30T07:57:17;8.80;99.90
10263;DHT22;5177;50.068;8.156;2022-09-30T07:59:42;8.70;99.90
10263;DHT22;5177;50.068;8.156;2022-09-30T08:02:17;8.70;99.90
10263;DHT22;5177;50.068;8.156;2022-09-30T08:04:43;8.70;99.90
10263;DHT22;5177;50.068;8.156;2022-09-30T08:07:08;9.00;99.90
10263;DHT22;5177;50.068;8.156;2022-09-30T08:09:34;9.10;99.90
10263;DHT22;5177;50.068;8.156;2022-09-30T08:12:00;9.30;99.90
10263;DHT22;5177;50.068;8.156;2022-09-30T08:14:26;9.30;99.90
10263;DHT22;5177;50.068;8.156;2022-09-30T08:16:52;9.50;99.90
10263;DHT22;5177;50.068;8.156;2022-09-30T08:19:19;9.80;99.90
10263;DHT22;5177;50.068;8.156;2022-09-30T08:21:45;9.90;99.90
10263;DHT22;5177;50.068;8.156;2022-09-30T08:24:11;10.10;99.90
10263;DHT22;5177;50.068;8.156;2022-09-30T08:26:37;10.20;99.90
10263;DHT22;5177;50.068;8.156;2022-09-30T08:29:02;10.50;99.90
10263;DHT22;5177;50.068;8.156;2022-09-30T08:31:28;10.80;99.90
10263;DHT22;5177;50.068;8.156;2022-09-30T08:33:54;11.10;99.90
10263;DHT22;5177;50.068;8.156;2022-09-30T08:36:20;11.50;99.90
10263;DHT22;5177;50.068;8.156;2022-09-30T08:38:46;11.90;99.90
10263;DHT22;5177;50.068;8.156;2022-09-30T08:49:01;12.40;99.90
10263;DHT22;5177;50.068;8.156;2022-09-30T08:51:35;12.60;99.90
10263;DHT22;5177;50.068;8.156;2022-09-30T08:54:01;12.70;99.90
10263;DHT22;5177;50.068;8.156;2022-09-30T08:56:31;12.90;99.90
10263;DHT22;5177;50.068;8.156;2022-09-30T08:59:10;13.00;99.90
10263;DHT22;5177;50.068;8.156;2022-09-30T09:01:43;13.00;99.90
10263;DHT22;5177;50.068;8.156;2022-09-30T09:04:11;12.90;99.90
10263;DHT22;5177;50.068;8.156;2022-09-30T09:19:41;13.60;92.70
10263;DHT22;5177;50.068;8.156;2022-09-30T09:22:07;13.80;79.90
10263;DHT22;5177;50.068;8.156;2022-09-30T09:27:05;13.90;70.40
10263;DHT22;5177;50.068;8.156;2022-09-30T09:32:13;14.20;71.50
10263;DHT22;5177;50.068;8.156;2022-09-30T09:34:39;14.40;52.50
10263;DHT22;5177;50.068;8.156;2022-09-30T09:40:14;14.80;41.70
10263;DHT22;5177;50.068;8.156;2022-09-30T09:42:54;14.60;38.90
10263;DHT22;5177;50.068;8.156;2022-09-30T09:47:51;14.50;47.10
10263;DHT22;5177;50.068;8.156;2022-09-30T09:50:18;14.70;47.30
10263;DHT22;5177;50.068;8.156;2022-09-30T09:53:08;14.70;26.40
10263;DHT22;5177;50.068;8.156;2022-09-30T09:55:38;14.70;25.60
10263;DHT22;5177;50.068;8.156;2022-09-30T09:58:08;15.00;8.90
10263;DHT22;5177;50.068;8.156;2022-09-30T10:00:34;15.10;1.00
10263;DHT22;5177;50.068;8.156;2022-09-30T10:03:18;15.30;1.00
10263;DHT22;5177;50.068;8.156;2022-09-30T10:06:07;15.50;1.00
10263;DHT22;5177;50.068;8.156;2022-09-30T10:08:32;15.60;1.00
10263;DHT22;5177;50.068;8.156;2022-09-30T10:10:59;15.80;1.00
10263;DHT22;5177;50.068;8.156;2022-09-30T10:13:26;15.80;1.00
10263;DHT22;5177;50.068;8.156;2022-09-30T10:15:54;15.90;1.00
10263;DHT22;5177;50.068;8.156;2022-09-30T10:18:27;15.90;1.00
10263;DHT22;5177;50.068;8.156;2022-09-30T10:20:55;16.00;1.00
10263;DHT22;5177;50.068;8.156;2022-09-30T10:23:24;16.20;1.00
10263;DHT22;5177;50.068;8.156;2022-09-30T10:25:54;16.30;1.00
10263;DHT22;5177;50.068;8.156;2022-09-30T10:28:25;16.30;1.00
10263;DHT22;5177;50.068;8.156;2022-09-30T10:30:53;16.60;99.90
10263;DHT22;5177;50.068;8.156;2022-09-30T10:33:20;16.70;99.90
10263;DHT22;5177;50.068;8.156;2022-09-30T10:35:51;16.90;99.90
10263;DHT22;5177;50.068;8.156;2022-09-30T10:38:18;17.00;99.90
10263;DHT22;5177;50.068;8.156;2022-09-30T10:40:46;17.20;1.00
10263;DHT22;5177;50.068;8.156;2022-09-30T10:43:55;17.30;1.00
10263;DHT22;5177;50.068;8.156;2022-09-30T10:46:01;17.20;1.00
10263;DHT22;5177;50.068;8.156;2022-09-30T10:48:30;17.40;99.90
10263;DHT22;5177;50.068;8.156;2022-09-30T10:50:57;17.30;99.90
10263;DHT22;5177;50.068;8.156;2022-09-30T10:53:23;17.00;99.90
10263;DHT22;5177;50.068;8.156;2022-09-30T10:55:50;16.90;99.90
10263;DHT22;5177;50.068;8.156;2022-09-30T10:58:28;16.90;1.00
10263;DHT22;5177;50.068;8.156;2022-09-30T11:00:56;17.10;99.90
10263;DHT22;5177;50.068;8.156;2022-09-30T11:03:26;17.30;1.00
10263;DHT22;5177;50.068;8.156;2022-09-30T11:05:52;17.50;1.00
10263;DHT22;5177;50.068;8.156;2022-09-30T11:08:21;17.40;1.00
10263;DHT22;5177;50.068;8.156;2022-09-30T11:10:53;17.50;1.00
10263;DHT22;5177;50.068;8.156;2022-09-30T11:13:22;17.90;1.00
10263;DHT22;5177;50.068;8.156;2022-09-30T11:21:05;18.10;1.00
10263;DHT22;5177;50.068;8.156;2022-09-30T11:23:37;18.40;1.00
10263;DHT22;5177;50.068;8.156;2022-09-30T11:26:07;18.70;1.00
10263;DHT22;5177;50.068;8.156;2022-09-30T11:31:23;18.80;99.90
10263;DHT22;5177;50.068;8.156;2022-09-30T11:33:57;18.90;1.00
10263;DHT22;5177;50.068;8.156;2022-09-30T11:36:39;18.70;99.90
10263;DHT22;5177;50.068;8.156;2022-09-30T11:41:44;18.70;99.90
10263;DHT22;5177;50.068;8.156;2022-09-30T11:44:20;18.80;99.90
10263;DHT22;5177;50.068;8.156;2022-09-30T11:47:00;18.70;1.00
10263;DHT22;5177;50.068;8.156;2022-09-30T11:59:14;19.20;99.90
10263;DHT22;5177;50.068;8.156;2022-09-30T12:01:42;19.10;99.90
10263;DHT22;5177;50.068;8.156;2022-09-30T12:04:14;18.80;99.90
10263;DHT22;5177;50.068;8.156;2022-09-30T12:06:41;18.90;99.90
10263;DHT22;5177;50.068;8.156;2022-09-30T12:09:51;19.10;99.90
10263;DHT22;5177;50.068;8.156;2022-09-30T12:12:07;19.30;99.90
10263;DHT22;5177;50.068;8.156;2022-09-30T12:14:38;19.40;67.30
10263;DHT22;5177;50.068;8.156;2022-09-30T12:17:06;19.30;99.90
10263;DHT22;5177;50.068;8.156;2022-09-30T12:19:40;18.80;99.90
10263;DHT22;5177;50.068;8.156;2022-09-30T12:22:19;18.40;99.90
10263;DHT22;5177;50.068;8.156;2022-09-30T12:24:46;18.10;1.00
10263;DHT22;5177;50.068;8.156;2022-09-30T12:27:19;17.90;1.00
10263;DHT22;5177;50.068;8.156;2022-09-30T12:30:04;18.00;1.00
10263;DHT22;5177;50.068;8.156;2022-09-30T12:38:18;18.60;1.00
10263;DHT22;5177;50.068;8.156;2022-09-30T12:40:52;18.70;1.00
10263;DHT22;5177;50.068;8.156;2022-09-30T12:46:08;19.50;99.90
10263;DHT22;5177;50.068;8.156;2022-09-30T12:48:48;19.60;99.90
10263;DHT22;5177;50.068;8.156;2022-09-30T12:51:19;19.90;99.90
10263;DHT22;5177;50.068;8.156;2022-09-30T12:53:46;20.10;99.90
10263;DHT22;5177;50.068;8.156;2022-09-30T12:56:14;20.50;99.90
10263;DHT22;5177;50.068;8.156;2022-09-30T12:58:42;20.70;1.00
10263;DHT22;5177;50.068;8.156;2022-09-30T13:01:10;20.40;1.00
10263;DHT22;5177;50.068;8.156;2022-09-30T13:03:50;20.30;1.00
10263;DHT22;5177;50.068;8.156;2022-09-30T13:06:17;20.40;1.00
10263;DHT22;5177;50.068;8.156;2022-09-30T13:11:29;19.80;44.30
10263;DHT22;5177;50.068;8.156;2022-09-30T13:14:21;20.00;88.90
10263;DHT22;5177;50.068;8.156;2022-09-30T13:27:37;20.20;1.00
10263;DHT22;5177;50.068;8.156;2022-09-30T13:30:45;20.50;1.00
10263;DHT22;5177;50.068;8.156;2022-09-30T13:40:41;20.60;1.00
10263;DHT22;5177;50.068;8.156;2022-09-30T13:43:13;20.40;1.00
10263;DHT22;5177;50.068;8.156;2022-09-30T13:45:40;20.60;1.00
10263;DHT22;5177;50.068;8.156;2022-09-30T13:48:13;20.80;1.00
10263;DHT22;5177;50.068;8.156;2022-09-30T13:50:50;20.90;1.00
10263;DHT22;5177;50.068;8.156;2022-09-30T13:53:36;20.90;1.00
10263;DHT22;5177;50.068;8.156;2022-09-30T13:56:05;21.00;1.00
10263;DHT22;5177;50.068;8.156;2022-09-30T14:06:42;20.60;1.00
10263;DHT22;5177;50.068;8.156;2022-09-30T14:09:27;20.60;1.00
10263;DHT22;5177;50.068;8.156;2022-09-30T14:12:07;20.70;1.00
10263;DHT22;5177;50.068;8.156;2022-09-30T14:22:07;20.90;1.00
10263;DHT22;5177;50.068;8.156;2022-09-30T14:24:37;20.40;1.00
10263;DHT22;5177;50.068;8.156;2022-09-30T14:32:16;19.00;1.00
10263;DHT22;5177;50.068;8.156;2022-09-30T14:34:44;18.80;91.20
10263;DHT22;5177;50.068;8.156;2022-09-30T14:37:12;19.30;99.90
10263;DHT22;5177;50.068;8.156;2022-09-30T14:39:39;19.60;99.90
10263;DHT22;5177;50.068;8.156;2022-09-30T14:42:04;19.10;47.50
10263;DHT22;5177;50.068;8.156;2022-09-30T14:44:35;18.80;99.90
10263;DHT22;5177;50.068;8.156;2022-09-30T14:47:02;19.00;99.90
10263;DHT22;5177;50.068;8.156;2022-09-30T14:49:28;19.70;99.90
10263;DHT22;5177;50.068;8.156;2022-09-30T14:52:00;21.10;1.00
10263;DHT22;5177;50.068;8.156;2022-09-30T14:54:27;22.90;99.90
10263;DHT22;5177;50.068;8.156;2022-09-30T14:59:46;25.50;99.90
10263;DHT22;5177;50.068;8.156;2022-09-30T15:02:14;25.50;99.90
10263;DHT22;5177;50.068;8.156;2022-09-30T15:04:42;26.00;98.40
10263;DHT22;5177;50.068;8.156;2022-09-30T15:07:11;25.80;83.20
10263;DHT22;5177;50.068;8.156;2022-09-30T15:09:40;26.10;57.70
10263;DHT22;5177;50.068;8.156;2022-09-30T15:12:20;25.20;67.50
10263;DHT22;5177;50.068;8.156;2022-09-30T15:20:23;25.20;48.50
10263;DHT22;5177;50.068;8.156;2022-09-30T15:22:50;25.70;38.10
10263;DHT22;5177;50.068;8.156;2022-09-30T15:25:17;25.60;27.10
10263;DHT22;5177;50.068;8.156;2022-09-30T15:27:43;24.90;32.30
10263;DHT22;5177;50.068;8.156;2022-09-30T15:32:38;22.60;99.90
10263;DHT22;5177;50.068;8.156;2022-09-30T15:35:04;21.50;99.90
10263;DHT22;5177;50.068;8.156;2022-09-30T15:37:30;20.50;99.90
10263;DHT22;5177;50.068;8.156;2022-09-30T15:39:58;19.70;1.00
10263;DHT22;5177;50.068;8.156;2022-09-30T15:42:43;19.10;99.90
10263;DHT22;5177;50.068;8.156;2022-09-30T15:47:57;18.30;36.90
10263;DHT22;5177;50.068;8.156;2022-09-30T15:53:12;17.50;99.90
10263;DHT22;5177;50.068;8.156;2022-09-30T15:55:39;17.30;99.90
10263;DHT22;5177;50.068;8.156;2022-09-30T16:06:50;16.50;99.90
10263;DHT22;5177;50.068;8.156;2022-09-30T16:11:42;16.40;1.00
10263;DHT22;5177;50.068;8.156;2022-09-30T16:14:20;16.20;1.00
10263;DHT22;5177;50.068;8.156;2022-09-30T16:16:50;16.20;1.00
10263;DHT22;5177;50.068;8.156;2022-09-30T16:19:17;16.20;99.90
10263;DHT22;5177;50.068;8.156;2022-09-30T16:21:44;16.10;1.00
10263;DHT22;5177;50.068;8.156;2022-09-30T16:24:39;16.10;1.00
10263;DHT22;5177;50.068;8.156;2022-09-30T16:26:59;16.10;99.90
10263;DHT22;5177;50.068;8.156;2022-09-30T16:29:26;16.00;1.00
10263;DHT22;5177;50.068;8.156;2022-09-30T16:31:55;16.00;1.00
10263;DHT22;5177;50.068;8.156;2022-09-30T16:34:36;15.90;1.00
10263;DHT22;5177;50.068;8.156;2022-09-30T16:37:11;15.80;99.90
10263;DHT22;5177;50.068;8.156;2022-09-30T16:39:37;15.80;1.00
10263;DHT22;5177;50.068;8.156;2022-09-30T16:42:03;15.70;22.60
10263;DHT22;5177;50.068;8.156;2022-09-30T16:44:29;15.70;1.00
10263;DHT22;5177;50.068;8.156;2022-09-30T16:46:59;15.50;99.90
10263;DHT22;5177;50.068;8.156;2022-09-30T16:49:25;15.50;99.90
10263;DHT22;5177;50.068;8.156;2022-09-30T16:51:50;15.40;99.90
10263;DHT22;5177;50.068;8.156;2022-09-30T16:57:19;15.30;1.00
10263;DHT22;5177;50.068;8.156;2022-09-30T16:59:45;15.30;1.00
10263;DHT22;5177;50.068;8.156;2022-09-30T17:02:13;15.30;1.00
10263;DHT22;5177;50.068;8.156;2022-09-30T17:04:39;15.20;1.00
10263;DHT22;5177;50.068;8.156;2022-09-30T17:07:05;15.10;1.00
10263;DHT22;5177;50.068;8.156;2022-09-30T17:09:30;15.10;1.00
10263;DHT22;5177;50.068;8.156;2022-09-30T17:11:56;15.00;1.00
10263;DHT22;5177;50.068;8.156;2022-09-30T17:14:25;15.00;1.00
10263;DHT22;5177;50.068;8.156;2022-09-30T17:16:50;14.90;1.00
10263;DHT22;5177;50.068;8.156;2022-09-30T17:19:16;14.80;1.00
10263;DHT22;5177;50.068;8.156;2022-09-30T17:21:41;14.70;1.00
10263;DHT22;5177;50.068;8.156;2022-09-30T17:24:07;14.60;1.00
10263;DHT22;5177;50.068;8.156;2022-09-30T17:26:32;14.50;1.00
10263;DHT22;5177;50.068;8.156;2022-09-30T17:28:58;14.50;1.00
10263;DHT22;5177;50.068;8.156;2022-09-30T17:31:24;14.50;1.00
10263;DHT22;5177;50.068;8.156;2022-09-30T17:33:49;14.30;1.00
10263;DHT22;5177;50.068;8.156;2022-09-30T17:36:16;14.40;1.00
10263;DHT22;5177;50.068;8.156;2022-09-30T17:38:43;14.40;1.00
10263;DHT22;5177;50.068;8.156;2022-09-30T17:41:08;14.30;1.00
10263;DHT22;5177;50.068;8.156;2022-09-30T17:43:52;14.30;1.00
10263;DHT22;5177;50.068;8.156;2022-09-30T17:46:18;14.30;1.00
10263;DHT22;5177;50.068;8.156;2022-09-30T17:48:49;14.30;6.00
10263;DHT22;5177;50.068;8.156;2022-09-30T17:51:15;14.30;6.50
10263;DHT22;5177;50.068;8.156;2022-09-30T17:53:41;14.30;9.60
10263;DHT22;5177;50.068;8.156;2022-09-30T17:56:13;14.30;14.10
10263;DHT22;5177;50.068;8.156;2022-09-30T17:58:41;14.20;20.60
10263;DHT22;5177;50.068;8.156;2022-09-30T18:01:09;14.20;24.20
10263;DHT22;5177;50.068;8.156;2022-09-30T18:03:35;14.10;30.20
10263;DHT22;5177;50.068;8.156;2022-09-30T18:06:01;14.00;42.00
10263;DHT22;5177;50.068;8.156;2022-09-30T18:08:26;14.00;30.60
10263;DHT22;5177;50.068;8.156;2022-09-30T18:10:55;14.00;34.00
10263;DHT22;5177;50.068;8.156;2022-09-30T18:13:24;13.80;46.60
10263;DHT22;5177;50.068;8.156;2022-09-30T18:15:49;13.80;50.10
10263;DHT22;5177;50.068;8.156;2022-09-30T18:18:15;13.70;63.60
10263;DHT22;5177;50.068;8.156;2022-09-30T18:20:41;13.70;61.20
10263;DHT22;5177;50.068;8.156;2022-09-30T18:23:08;13.70;62.80
10263;DHT22;5177;50.068;8.156;2022-09-30T18:25:33;13.60;59.90
10263;DHT22;5177;50.068;8.156;2022-09-30T18:27:59;13.60;59.20
10263;DHT22;5177;50.068;8.156;2022-09-30T18:30:26;13.50;59.50
10263;DHT22;5177;50.068;8.156;2022-09-30T18:32:52;13.50;63.90
10263;DHT22;5177;50.068;8.156;2022-09-30T18:35:19;13.50;70.00
10263;DHT22;5177;50.068;8.156;2022-09-30T18:37:46;13.40;77.00
10263;DHT22;5177;50.068;8.156;2022-09-30T18:40:14;13.30;83.60
10263;DHT22;5177;50.068;8.156;2022-09-30T18:42:41;13.30;93.10
10263;DHT22;5177;50.068;8.156;2022-09-30T18:45:07;13.20;98.20
10263;DHT22;5177;50.068;8.156;2022-09-30T18:47:36;13.10;99.90
10263;DHT22;5177;50.068;8.156;2022-09-30T18:50:01;13.00;99.90
10263;DHT22;5177;50.068;8.156;2022-09-30T18:52:27;13.00;99.90
10263;DHT22;5177;50.068;8.156;2022-09-30T18:54:52;13.00;99.90
10263;DHT22;5177;50.068;8.156;2022-09-30T18:57:18;13.00;99.90
10263;DHT22;5177;50.068;8.156;2022-09-30T18:59:44;13.00;99.90
10263;DHT22;5177;50.068;8.156;2022-09-30T19:02:13;12.90;99.90
10263;DHT22;5177;50.068;8.156;2022-09-30T19:04:38;12.90;99.90
10263;DHT22;5177;50.068;8.156;2022-09-30T19:07:04;13.00;99.90